createdAt,value
2023-03-01T00:03:19.193Z,25.57
2023-03-01T00:04:19.511Z,30.57
2023-03-01T00:05:20.100Z,29.23
2023-03-01T00:06:19.041Z,31.15
2023-03-01T00:07:20.543Z,29.88
2023-03-01T00:08:21.368Z,28.95
2023-03-01T00:09:20.539Z,28.08
2023-03-01T00:19:59.083Z,28.00
2023-03-01T00:20:58.975Z,29.22
2023-03-01T00:21:58.674Z,29.50
2023-03-01T00:22:58.646Z,28.46
2023-03-01T00:23:58.622Z,28.34
2023-03-01T00:24:58.613Z,30.28
2023-03-01T00:25:58.711Z,28.13
2023-03-01T00:26:58.597Z,29.33
2023-03-01T00:27:58.610Z,28.82
2023-03-01T00:28:58.712Z,28.49
2023-03-01T00:29:58.540Z,27.79
2023-03-01T00:30:58.673Z,28.43
2023-03-01T00:31:58.691Z,27.93
2023-03-01T00:32:58.525Z,31.47
2023-03-01T00:33:58.633Z,28.13
2023-03-01T00:34:58.557Z,29.34
2023-03-01T00:35:58.583Z,30.31
2023-03-01T00:36:58.608Z,28.96
2023-03-01T01:44:21.541Z,34.88
2023-03-01T01:46:21.227Z,33.98
2023-03-01T01:47:21.323Z,33.58
2023-03-01T01:48:21.106Z,32.54
2023-03-01T01:49:21.098Z,32.04
2023-03-01T01:57:23.468Z,12.68
2023-03-01T02:09:23.275Z,30.87
2023-03-01T02:10:23.537Z,31.06
2023-03-01T02:11:23.353Z,32.36
2023-03-01T02:12:23.138Z,30.81
2023-03-01T02:13:23.122Z,32.15
2023-03-01T02:14:23.153Z,32.45
2023-03-01T02:15:23.116Z,30.02
2023-03-01T02:16:23.270Z,31.74
2023-03-01T02:17:23.096Z,29.58
2023-03-01T02:23:19.619Z,30.87
2023-03-01T02:24:23.010Z,30.53
2023-03-01T02:25:23.174Z,31.39
2023-03-01T02:26:22.883Z,31.37
2023-03-01T02:27:22.970Z,31.13
2023-03-01T02:28:22.865Z,30.13
2023-03-01T02:45:57.264Z,10.90
2023-03-01T02:48:16.597Z,23.74
2023-03-01T02:49:16.871Z,26.32
2023-03-01T02:53:57.669Z,24.15
2023-03-01T02:54:58.610Z,26.09
2023-03-01T02:57:17.114Z,24.63
2023-03-01T02:58:16.906Z,24.97
2023-03-01T02:59:17.052Z,23.66
2023-03-01T03:00:16.764Z,23.98
2023-03-01T03:01:16.898Z,26.12
2023-03-01T03:02:16.781Z,26.67
2023-03-01T03:03:16.777Z,23.87
2023-03-01T03:04:16.765Z,23.03
2023-03-01T03:05:16.786Z,23.19
2023-03-01T03:06:16.965Z,22.80
2023-03-01T03:07:16.774Z,23.40
2023-03-01T03:08:16.734Z,23.51
2023-03-01T03:09:16.910Z,23.61
2023-03-01T03:10:16.695Z,22.92
2023-03-01T03:11:16.748Z,23.46
2023-03-01T03:12:16.694Z,23.22
2023-03-01T03:13:16.747Z,22.43
2023-03-01T03:14:16.731Z,23.46
2023-03-01T03:15:16.729Z,23.62
2023-03-01T03:16:16.717Z,24.89
2023-03-01T03:17:16.674Z,22.51
2023-03-01T03:18:16.671Z,23.97
2023-03-01T03:19:16.647Z,23.29
2023-03-01T03:20:16.679Z,25.38
2023-03-01T03:23:59.020Z,25.99
2023-03-01T03:24:57.020Z,27.62
2023-03-01T03:25:56.637Z,24.73
2023-03-01T03:26:56.612Z,23.67
2023-03-01T03:27:56.589Z,22.67
2023-03-01T03:28:56.649Z,23.19
2023-03-01T03:29:56.556Z,22.18
2023-03-01T03:30:56.562Z,22.62
2023-03-01T03:31:56.645Z,23.85
2023-03-01T03:32:56.575Z,23.43
2023-03-01T03:33:56.527Z,23.31
2023-03-01T03:34:56.536Z,22.82
2023-03-01T04:45:30.146Z,13.93
2023-03-01T04:46:30.360Z,30.98
2023-03-01T04:47:30.261Z,28.33
2023-03-01T04:48:29.927Z,29.06
2023-03-01T04:49:29.887Z,28.87
2023-03-01T04:50:29.870Z,30.45
2023-03-01T04:51:29.929Z,29.77
2023-03-01T04:52:29.872Z,29.76
2023-03-01T04:53:30.064Z,27.61
2023-03-01T04:54:29.907Z,27.06
2023-03-01T04:55:29.841Z,28.51
2023-03-01T04:56:30.098Z,28.49
2023-03-01T04:57:29.813Z,28.42
2023-03-01T04:58:29.845Z,29.85
2023-03-01T04:59:29.827Z,28.21
2023-03-01T05:00:29.827Z,26.78
2023-03-01T05:01:29.833Z,27.32
2023-03-01T05:02:29.873Z,28.87
2023-03-01T05:03:29.803Z,28.40
2023-03-01T05:04:29.863Z,27.36
2023-03-01T05:05:29.822Z,27.52
2023-03-01T05:06:30.126Z,26.80
2023-03-01T05:07:29.827Z,27.13
2023-03-01T05:08:29.867Z,24.72
2023-03-01T05:09:29.912Z,25.39
2023-03-01T05:10:30.003Z,24.94
2023-03-01T05:11:30.011Z,25.10
2023-03-01T05:12:30.030Z,24.50
2023-03-01T05:13:30.043Z,24.50
2023-03-01T05:14:30.103Z,26.57
2023-03-01T05:15:30.198Z,25.01
2023-03-01T05:16:30.426Z,25.27
2023-03-01T05:17:30.170Z,24.54
2023-03-01T05:18:30.217Z,23.68
2023-03-01T05:19:30.224Z,24.26
2023-03-01T05:20:30.190Z,24.95
2023-03-01T05:21:30.236Z,25.31
2023-03-01T05:22:30.312Z,23.17
2023-03-01T05:23:30.308Z,23.34
2023-03-01T05:24:30.336Z,24.67
2023-03-01T05:25:30.368Z,22.71
2023-03-01T05:26:30.366Z,25.06
2023-03-01T05:27:30.447Z,23.48
2023-03-01T05:28:30.426Z,23.02
2023-03-01T05:29:30.479Z,21.98
2023-03-01T05:30:30.480Z,21.36
2023-03-01T05:31:30.584Z,22.78
2023-03-01T05:33:30.630Z,24.05
2023-03-01T06:47:30.691Z,16.35
2023-03-01T06:48:31.003Z,18.18
2023-03-01T06:49:30.565Z,17.41
2023-03-01T06:50:30.571Z,17.44
2023-03-01T06:51:31.434Z,17.82
2023-03-01T06:52:30.413Z,17.24
2023-03-01T07:03:50.174Z,18.10
2023-03-01T07:53:15.406Z,6.28
2023-03-01T07:54:15.548Z,18.74
2023-03-01T07:55:15.091Z,19.18
2023-03-01T07:56:30.482Z,18.89
2023-03-01T07:57:14.915Z,19.00
2023-03-01T07:58:15.341Z,19.01
2023-03-01T07:59:14.882Z,19.15
2023-03-01T08:00:14.926Z,21.09
2023-03-01T08:01:15.610Z,22.13
2023-03-01T08:02:14.855Z,21.56
2023-03-01T08:03:14.861Z,25.26
2023-03-01T08:04:14.834Z,24.42
2023-03-01T08:05:14.813Z,24.37
2023-03-01T08:06:14.759Z,23.26
2023-03-01T08:07:14.781Z,23.43
2023-03-01T08:08:14.831Z,22.37
2023-03-01T08:09:14.740Z,22.62
2023-03-01T08:10:14.769Z,20.66
2023-03-01T08:11:14.761Z,20.90
2023-03-01T08:12:14.715Z,20.09
2023-03-01T08:13:15.196Z,21.65
2023-03-01T08:14:14.802Z,23.06
2023-03-01T08:15:14.724Z,22.61
2023-03-01T08:16:14.793Z,21.96
2023-03-01T08:17:14.760Z,23.47
2023-03-01T08:18:14.830Z,22.05
2023-03-01T08:19:14.798Z,19.37
2023-03-01T08:20:14.820Z,19.26
2023-03-01T08:21:14.830Z,19.82
2023-03-01T08:22:15.028Z,19.35
2023-03-01T08:24:15.012Z,18.44
2023-03-01T08:25:14.951Z,17.96
2023-03-01T08:26:14.955Z,17.43
2023-03-01T08:27:14.999Z,18.98
2023-03-01T08:29:15.137Z,19.74
2023-03-01T08:30:15.160Z,19.49
2023-03-01T08:31:15.329Z,19.12
2023-03-01T08:32:15.642Z,18.96
2023-03-01T08:34:15.320Z,18.08
2023-03-01T08:35:15.700Z,17.62
2023-03-01T08:36:15.448Z,17.59
2023-03-01T08:37:15.438Z,16.99
2023-03-01T08:58:31.187Z,21.44
2023-03-01T09:04:16.172Z,18.26
2023-03-01T09:29:29.492Z,7.01
2023-03-01T09:42:55.045Z,4.56
2023-03-01T09:43:50.844Z,18.90
2023-03-01T09:47:31.091Z,19.24
2023-03-01T09:49:50.047Z,10.78
2023-03-01T09:51:05.023Z,15.49
2023-03-01T09:51:49.656Z,16.20
2023-03-01T09:52:49.799Z,14.40
2023-03-01T09:53:49.605Z,12.18
2023-03-01T09:54:49.645Z,12.89
2023-03-01T09:55:49.586Z,11.50
2023-03-01T09:56:49.633Z,18.05
2023-03-01T09:58:49.797Z,20.24
2023-03-01T09:59:50.218Z,18.27
2023-03-01T10:00:50.036Z,18.82
2023-03-01T10:01:50.154Z,18.38
2023-03-01T10:02:50.582Z,18.42
2023-03-01T10:03:51.772Z,19.05
2023-03-01T10:04:50.127Z,18.50
2023-03-01T10:06:04.966Z,17.93
2023-03-01T10:06:49.624Z,18.15
2023-03-01T10:14:49.473Z,20.06
2023-03-01T10:15:49.570Z,20.31
2023-03-01T10:16:49.479Z,18.29
2023-03-01T10:17:49.497Z,18.32
2023-03-01T10:18:49.456Z,19.07
2023-03-01T10:19:49.459Z,18.83
2023-03-01T10:20:49.477Z,17.39
2023-03-01T10:25:49.453Z,19.53
2023-03-01T11:03:08.385Z,18.87
2023-03-01T11:15:08.407Z,19.20
2023-03-01T11:21:28.264Z,19.13
2023-03-01T11:22:27.903Z,18.89
2023-03-01T11:23:29.008Z,19.12
2023-03-01T11:25:48.010Z,18.08
2023-03-01T11:26:47.491Z,19.65
2023-03-01T11:27:47.474Z,18.60
2023-03-01T11:28:47.881Z,19.26
2023-03-01T11:29:49.026Z,19.43
2023-03-01T11:30:53.088Z,18.00
2023-03-01T11:31:57.285Z,19.38
2023-03-01T11:32:48.415Z,19.44
2023-03-01T11:33:47.327Z,19.27
2023-03-01T11:34:47.326Z,19.30
2023-03-01T11:39:06.886Z,17.13
2023-03-01T11:41:06.974Z,18.87
2023-03-01T11:42:18.068Z,19.03
2023-03-01T11:49:08.193Z,8.07
2023-03-01T11:50:07.638Z,20.32
2023-03-01T11:51:08.387Z,18.74
2023-03-01T11:53:07.106Z,18.60
2023-03-01T13:23:39.959Z,22.07
2023-03-01T13:33:39.924Z,21.07
2023-03-01T14:13:37.403Z,15.31
2023-03-01T14:22:35.278Z,17.18
2023-03-01T14:23:34.635Z,16.82
2023-03-01T14:24:34.688Z,16.18
2023-03-01T14:25:34.658Z,16.47
2023-03-01T14:26:34.614Z,17.46
2023-03-01T14:27:34.699Z,15.99
2023-03-01T14:28:34.667Z,16.86
2023-03-01T14:29:34.624Z,17.25
2023-03-01T14:30:34.624Z,17.04
2023-03-01T14:31:40.982Z,17.52
2023-03-01T14:52:34.694Z,18.15
2023-03-01T14:53:45.830Z,17.50
2023-03-01T14:54:35.669Z,17.82
2023-03-01T14:55:34.704Z,17.32
2023-03-01T14:56:34.665Z,17.97
2023-03-01T14:57:34.684Z,17.86
2023-03-01T14:58:34.855Z,18.82
2023-03-01T14:59:34.690Z,18.33
2023-03-01T15:07:34.584Z,18.27
2023-03-01T15:08:34.599Z,17.30
2023-03-01T15:09:34.810Z,16.85
2023-03-01T15:10:34.724Z,17.25
2023-03-01T15:11:35.191Z,17.50
2023-03-01T15:12:34.860Z,17.70
2023-03-01T15:13:34.839Z,16.96
2023-03-01T15:14:34.952Z,16.82
2023-03-01T16:01:54.563Z,19.27
2023-03-01T16:29:54.379Z,21.46
2023-03-01T16:30:54.407Z,19.81
2023-03-01T16:31:54.502Z,21.82
2023-03-01T16:32:54.513Z,20.76
2023-03-01T16:33:54.537Z,21.97
2023-03-01T16:34:54.546Z,21.84
2023-03-01T16:35:54.596Z,21.95
2023-03-01T17:48:13.947Z,32.26
2023-03-01T17:49:14.107Z,30.46
2023-03-01T17:50:13.907Z,29.41
2023-03-01T18:14:49.839Z,31.25
2023-03-01T19:01:13.145Z,32.25
2023-03-01T19:02:13.186Z,31.67
2023-03-01T19:03:12.931Z,31.81
2023-03-01T19:37:32.866Z,33.06
2023-03-01T19:38:32.875Z,31.87
2023-03-01T19:39:32.852Z,33.08
2023-03-01T19:40:32.832Z,32.28
2023-03-01T19:41:32.859Z,33.42
2023-03-01T19:42:32.849Z,32.48
2023-03-01T19:48:23.791Z,25.26
2023-03-01T19:49:23.594Z,32.98
2023-03-01T19:50:23.390Z,34.07
2023-03-01T20:02:57.432Z,11.48
2023-03-01T20:03:57.355Z,33.70
2023-03-01T20:09:57.107Z,31.58
2023-03-01T20:12:16.721Z,32.35
2023-03-01T20:13:16.668Z,33.12
2023-03-01T20:14:16.604Z,33.43
2023-03-01T20:15:16.580Z,32.19
2023-03-01T20:16:16.611Z,34.02
2023-03-01T20:17:16.565Z,33.66
2023-03-01T20:18:16.572Z,34.27
2023-03-01T20:19:16.543Z,32.64
2023-03-01T20:20:16.554Z,34.23
2023-03-01T20:21:24.794Z,36.52
2023-03-01T20:22:17.906Z,35.34
2023-03-01T20:23:16.548Z,34.91
2023-03-01T20:24:16.535Z,33.17
2023-03-01T20:25:16.566Z,34.09
2023-03-01T20:26:16.595Z,34.89
2023-03-01T20:27:16.507Z,34.00
2023-03-01T20:28:16.491Z,33.54
2023-03-01T20:29:16.485Z,31.63
2023-03-01T20:30:16.493Z,33.65
2023-03-01T20:31:16.518Z,34.79
2023-03-01T20:32:16.579Z,34.15
2023-03-01T20:33:16.476Z,32.63
2023-03-01T20:34:16.478Z,34.37
2023-03-01T20:35:16.433Z,35.33
2023-03-01T20:36:16.467Z,33.89
2023-03-01T20:37:16.446Z,39.35
2023-03-01T20:38:16.481Z,36.78
2023-03-01T20:39:16.581Z,37.80
2023-03-01T20:40:16.730Z,39.77
2023-03-01T20:41:16.602Z,39.24
2023-03-01T20:42:16.625Z,36.99
2023-03-01T20:43:16.602Z,34.32
2023-03-01T20:44:16.683Z,33.89
2023-03-01T20:45:16.641Z,34.96
2023-03-01T20:46:16.745Z,34.94
2023-03-01T20:47:16.732Z,33.63
2023-03-01T20:48:16.741Z,33.38
2023-03-01T20:49:16.803Z,33.95
2023-03-01T20:50:16.865Z,34.47
2023-03-01T20:51:16.882Z,33.34
2023-03-01T20:52:16.995Z,34.20
2023-03-01T20:53:17.018Z,37.01
2023-03-01T20:54:17.003Z,34.30
2023-03-01T20:55:17.077Z,36.54
2023-03-01T20:56:17.044Z,35.10
2023-03-01T20:57:17.066Z,34.38
2023-03-01T20:58:17.112Z,34.06
2023-03-01T20:59:17.129Z,33.42
2023-03-01T21:00:17.150Z,33.85
2023-03-01T21:01:17.240Z,35.35
2023-03-01T21:02:17.217Z,33.41
2023-03-01T21:03:17.240Z,33.04
2023-03-01T21:04:17.365Z,34.51
2023-03-01T21:05:17.246Z,37.09
2023-03-01T21:06:17.302Z,34.90
2023-03-01T21:07:17.262Z,34.68
2023-03-01T21:08:17.302Z,33.67
2023-03-01T21:09:17.327Z,36.42
2023-03-01T21:10:17.438Z,34.13
2023-03-01T21:11:17.510Z,34.22
2023-03-01T21:12:17.443Z,34.56
2023-03-01T21:13:17.384Z,34.25
2023-03-01T21:14:17.428Z,35.76
2023-03-01T21:15:28.330Z,36.00
2023-03-01T21:16:18.534Z,34.80
2023-03-01T21:17:17.417Z,35.14
2023-03-01T21:18:17.424Z,35.11
2023-03-01T21:19:17.438Z,36.55
2023-03-01T21:20:17.402Z,34.55
2023-03-01T21:21:17.402Z,34.94
2023-03-01T21:22:17.420Z,35.71
2023-03-01T21:23:17.379Z,36.03
2023-03-01T21:24:17.464Z,35.63
2023-03-01T21:25:17.414Z,35.69
2023-03-01T21:26:17.398Z,34.88
2023-03-01T21:27:17.404Z,34.52
2023-03-01T21:28:17.504Z,36.69
2023-03-01T21:29:17.556Z,37.12
2023-03-01T21:30:17.635Z,36.76
2023-03-01T21:31:17.715Z,36.80
2023-03-01T21:32:17.878Z,35.66
2023-03-01T21:33:17.777Z,36.19
2023-03-01T21:34:17.877Z,35.33
2023-03-01T21:35:17.958Z,36.42
2023-03-01T21:36:17.928Z,37.71
2023-03-01T21:37:17.930Z,35.71
2023-03-01T21:38:17.935Z,34.22
2023-03-01T21:39:18.022Z,35.08
2023-03-01T21:40:18.050Z,35.22
2023-03-01T21:41:18.033Z,34.89
2023-03-01T21:42:18.074Z,35.67
2023-03-01T21:43:18.112Z,35.83
2023-03-01T21:44:18.295Z,36.01
2023-03-01T21:45:18.179Z,34.45
2023-03-01T21:46:18.204Z,35.02
2023-03-01T21:47:18.284Z,34.61
2023-03-01T21:48:18.264Z,37.07
2023-03-01T21:49:18.318Z,34.80
2023-03-01T21:50:18.325Z,34.78
2023-03-01T21:51:18.424Z,33.88
2023-03-01T21:52:18.438Z,32.22
2023-03-01T21:53:18.470Z,34.65
2023-03-01T21:54:18.532Z,32.29
2023-03-01T21:55:18.613Z,30.89
2023-03-01T21:56:18.677Z,32.43
2023-03-01T21:57:18.639Z,34.09
2023-03-01T21:58:18.668Z,32.56
2023-03-01T21:59:18.766Z,32.76
2023-03-01T22:00:18.770Z,33.81
2023-03-01T22:01:18.919Z,32.56
2023-03-01T22:02:18.858Z,30.65
2023-03-01T22:03:18.918Z,33.15
2023-03-01T22:04:18.915Z,31.60
2023-03-01T22:05:18.979Z,32.16
2023-03-01T22:06:30.011Z,30.91
2023-03-01T22:07:20.033Z,31.74
2023-03-01T22:08:18.998Z,32.03
2023-03-01T22:09:19.048Z,31.19
2023-03-01T22:10:18.992Z,31.30
2023-03-01T22:11:19.009Z,31.50
2023-03-01T22:12:18.975Z,31.82
2023-03-01T22:14:39.015Z,31.38
2023-03-01T22:15:39.031Z,31.65
2023-03-01T22:16:38.859Z,29.75
2023-03-01T22:17:38.739Z,30.71
2023-03-01T22:18:38.813Z,32.30
2023-03-01T22:19:38.740Z,31.08
2023-03-01T22:20:38.764Z,31.69
2023-03-01T22:21:38.698Z,31.52
2023-03-01T22:23:59.146Z,30.88
2023-03-01T22:24:58.947Z,30.98
2023-03-01T22:25:59.150Z,29.41
2023-03-01T22:26:58.915Z,31.51
2023-03-01T22:27:58.875Z,29.92
2023-03-01T22:28:58.912Z,30.20
2023-03-01T22:29:58.841Z,29.10
2023-03-01T22:30:58.849Z,31.87
2023-03-01T22:31:58.959Z,31.35
2023-03-01T22:32:58.835Z,32.00
2023-03-01T22:33:58.830Z,32.00
2023-03-01T22:34:58.851Z,32.28
2023-03-01T22:35:58.889Z,30.84
2023-03-01T22:36:58.838Z,31.10
2023-03-01T22:37:58.809Z,31.38
2023-03-01T22:38:58.795Z,31.59
2023-03-01T22:39:58.753Z,32.02
2023-03-01T22:40:58.784Z,31.41
2023-03-01T22:41:58.764Z,33.10
2023-03-01T22:42:58.815Z,33.54
2023-03-01T22:43:58.787Z,32.56
2023-03-01T22:44:58.796Z,32.83
2023-03-01T22:45:58.770Z,33.15
2023-03-01T22:46:58.793Z,32.86
2023-03-01T22:47:58.734Z,31.26
2023-03-01T22:48:58.729Z,31.79
2023-03-01T22:49:58.732Z,32.93
2023-03-01T22:50:58.748Z,32.36
2023-03-01T22:52:00.371Z,33.00
2023-03-01T22:52:58.699Z,33.09
2023-03-01T22:53:58.766Z,33.53
2023-03-01T22:54:58.680Z,31.03
2023-03-01T22:55:58.709Z,33.25
2023-03-01T22:56:58.740Z,34.48
2023-03-01T22:57:58.818Z,34.96
2023-03-01T22:58:58.790Z,33.74
2023-03-01T22:59:58.825Z,34.12
2023-03-01T23:00:58.854Z,34.54
2023-03-01T23:01:58.892Z,34.50
2023-03-01T23:02:58.965Z,31.65
2023-03-01T23:03:58.982Z,33.50
2023-03-01T23:04:59.011Z,34.80
2023-03-01T23:05:59.006Z,35.26
2023-03-01T23:06:59.061Z,33.37
2023-03-01T23:07:59.034Z,33.89
2023-03-01T23:08:59.170Z,33.56
2023-03-01T23:09:59.152Z,33.41
2023-03-01T23:10:59.204Z,32.19
2023-03-01T23:11:59.257Z,32.53
2023-03-01T23:13:59.394Z,36.87
2023-03-01T23:39:16.948Z,36.28
